createdAt,value
2019-04-10T00:02:53.331Z,98224.19
2019-04-10T00:06:08.716Z,98224.95
2019-04-10T00:09:23.183Z,98230.06
2019-04-10T00:12:36.692Z,98223.75
2019-04-10T00:15:50.773Z,98224.07
2019-04-10T00:19:04.559Z,98224.31
2019-04-10T00:22:18.066Z,98217.39
2019-04-10T00:25:31.524Z,98227.16
2019-04-10T00:28:45.213Z,98224.27
2019-04-10T00:32:01.691Z,98224.66
2019-04-10T00:35:15.007Z,98227.44
2019-04-10T00:38:29.465Z,98228.03
2019-04-10T00:41:44.227Z,98229.72
2019-04-10T00:44:57.688Z,98231.55
2019-04-10T00:48:11.993Z,98230.75
2019-04-10T00:51:25.685Z,98230.22
2019-04-10T00:54:39.315Z,98233.23
2019-04-10T00:57:54.605Z,98239.13
2019-04-10T01:01:08.191Z,98232.00
2019-04-10T01:04:25.209Z,98232.20
2019-04-10T01:07:41.653Z,98228.84
2019-04-10T01:10:54.679Z,98231.13
2019-04-10T01:14:08.203Z,98228.84
2019-04-10T01:17:22.266Z,98226.43
2019-04-10T01:20:35.756Z,98228.51
2019-04-10T01:23:49.202Z,98222.87
2019-04-10T01:27:03.442Z,98221.66
2019-04-10T01:30:18.030Z,98216.61
2019-04-10T01:33:32.519Z,98218.37
2019-04-10T01:36:46.095Z,98217.48
2019-04-10T01:39:59.564Z,98213.52
2019-04-10T01:43:17.567Z,98214.53
2019-04-10T01:46:28.830Z,98213.14
2019-04-10T01:49:42.569Z,98208.47
2019-04-10T01:52:56.063Z,98210.75
2019-04-10T01:56:21.096Z,98211.16
2019-04-10T01:59:26.274Z,98211.48
2019-04-10T02:02:45.592Z,98211.03
2019-04-10T02:05:59.342Z,98214.75
2019-04-10T02:09:12.930Z,98214.72
2019-04-10T02:12:26.414Z,98210.87
2019-04-10T02:15:40.150Z,98208.92
2019-04-10T02:18:54.117Z,98212.24
2019-04-10T02:22:08.641Z,98209.61
2019-04-10T02:25:22.133Z,98205.77
2019-04-10T02:28:36.168Z,98206.69
2019-04-10T02:31:50.753Z,98201.23
2019-04-10T02:35:08.536Z,98203.34
2019-04-10T02:38:38.759Z,98198.44
2019-04-10T02:41:38.585Z,98196.67
2019-04-10T02:44:52.334Z,98195.66
2019-04-10T02:48:08.029Z,98197.90
2019-04-10T02:51:23.746Z,98193.33
2019-04-10T02:54:37.605Z,98206.33
2019-04-10T02:57:51.898Z,98201.20
2019-04-10T03:01:06.917Z,98204.19
2019-04-10T03:04:21.053Z,98207.27
2019-04-10T03:07:35.896Z,98203.97
2019-04-10T03:10:56.049Z,98202.81
2019-04-10T03:14:05.072Z,98208.02
2019-04-10T03:17:19.713Z,98203.58
2019-04-10T03:20:34.240Z,98203.30
2019-04-10T03:23:48.010Z,98200.41
2019-04-10T03:27:01.766Z,98207.54
2019-04-10T03:30:15.571Z,98202.42
2019-04-10T03:33:50.502Z,98205.19
2019-04-10T03:37:04.537Z,98199.18
2019-04-10T03:40:18.217Z,98196.47
2019-04-10T03:43:31.964Z,98201.80
2019-04-10T03:46:46.830Z,98203.80
2019-04-10T03:50:00.663Z,98199.16
2019-04-10T03:53:14.391Z,98197.88
2019-04-10T03:56:27.984Z,98203.80
2019-04-10T03:59:42.085Z,98206.36
2019-04-10T04:02:56.049Z,98208.95
2019-04-10T04:06:09.640Z,98205.98
2019-04-10T04:09:23.789Z,98207.27
2019-04-10T04:12:37.710Z,98204.15
2019-04-10T04:15:52.563Z,98203.91
2019-04-10T04:19:06.776Z,98205.48
2019-04-10T04:22:21.519Z,98210.18
2019-04-10T04:25:35.230Z,98210.94
2019-04-10T04:28:49.444Z,98209.27
2019-04-10T04:32:03.182Z,98207.64
2019-04-10T04:35:17.575Z,98211.94
2019-04-10T04:38:32.220Z,98212.94
2019-04-10T04:41:45.752Z,98212.61
2019-04-10T04:44:59.450Z,98212.06
2019-04-10T04:48:13.347Z,98215.63
2019-04-10T04:51:27.327Z,98213.83
2019-04-10T04:54:41.471Z,98224.20
2019-04-10T04:57:55.613Z,98227.38
2019-04-10T05:01:10.496Z,98231.03
2019-04-10T05:04:25.043Z,98231.88
2019-04-10T05:07:39.738Z,98230.14
2019-04-10T05:10:53.788Z,98228.64
2019-04-10T05:14:07.227Z,98236.88
2019-04-10T05:17:22.080Z,98241.91
2019-04-10T05:20:43.909Z,98243.13
2019-04-10T05:23:51.587Z,98248.45
2019-04-10T05:27:05.727Z,98249.74
2019-04-10T05:30:19.367Z,98253.37
2019-04-10T05:33:33.225Z,98258.48
2019-04-10T05:36:47.047Z,98257.70
2019-04-10T05:40:01.540Z,98262.14
2019-04-10T05:43:15.249Z,98259.37
2019-04-10T05:46:28.725Z,98270.64
2019-04-10T05:49:42.228Z,98275.54
2019-04-10T05:52:55.948Z,98278.16
2019-04-10T05:56:09.855Z,98276.06
2019-04-10T05:59:23.884Z,98277.28
2019-04-10T06:02:37.611Z,98275.73
2019-04-10T06:05:51.098Z,98273.50
2019-04-10T06:09:06.676Z,98280.23
2019-04-10T06:12:20.395Z,98277.34
2019-04-10T06:15:34.989Z,98279.84
2019-04-10T06:18:48.767Z,98281.22
2019-04-10T06:22:03.179Z,98283.36
2019-04-10T06:25:18.817Z,98284.30
2019-04-10T06:28:32.647Z,98284.91
2019-04-10T06:31:46.993Z,98287.00
2019-04-10T06:35:01.916Z,98290.41
2019-04-10T06:38:16.799Z,98285.72
2019-04-10T06:41:30.731Z,98294.86
2019-04-10T06:44:44.709Z,98290.62
2019-04-10T06:47:58.470Z,98294.73
2019-04-10T06:51:12.878Z,98294.06
2019-04-10T06:54:26.856Z,98292.31
2019-04-10T06:57:50.963Z,98297.31
2019-04-10T07:00:56.337Z,98296.89
2019-04-10T07:04:11.392Z,98301.41
2019-04-10T07:07:27.228Z,98306.69
2019-04-10T07:10:52.103Z,98303.36
2019-04-10T07:13:57.399Z,98308.91
2019-04-10T07:17:14.324Z,98313.61
2019-04-10T07:20:28.216Z,98313.63
2019-04-10T07:23:42.843Z,98313.48
2019-04-10T07:26:58.063Z,98315.36
2019-04-10T07:30:12.499Z,98326.60
2019-04-10T07:33:26.682Z,98329.48
2019-04-10T07:36:43.469Z,98333.33
2019-04-10T07:39:59.757Z,98335.94
2019-04-10T07:43:13.289Z,98336.44
2019-04-10T07:46:28.217Z,98339.56
2019-04-10T07:49:41.964Z,98345.52
2019-04-10T07:52:55.678Z,98349.17
2019-04-10T07:56:14.904Z,98353.23
2019-04-10T07:59:25.062Z,98358.95
2019-04-10T08:02:39.062Z,98355.52
2019-04-10T08:05:52.708Z,98359.39
2019-04-10T08:09:08.279Z,98356.84
2019-04-10T08:12:23.218Z,98366.10
2019-04-10T08:15:37.808Z,98359.31
2019-04-10T08:18:52.206Z,98355.95
2019-04-10T08:22:06.244Z,98358.52
2019-04-10T08:25:20.162Z,98367.52
2019-04-10T08:28:35.027Z,98367.77
2019-04-10T08:31:48.868Z,98365.97
2019-04-10T08:35:04.555Z,98365.39
2019-04-10T08:38:19.646Z,98368.95
2019-04-10T08:41:35.149Z,98371.20
2019-04-10T08:44:48.981Z,98369.30
2019-04-10T08:48:03.615Z,98374.38
2019-04-10T08:51:17.723Z,98375.78
2019-04-10T08:54:32.235Z,98375.32
2019-04-10T08:57:45.946Z,98380.95
2019-04-10T09:01:00.791Z,98375.84
2019-04-10T09:04:14.670Z,98376.80
2019-04-10T09:07:28.474Z,98376.58
2019-04-10T09:14:08.651Z,98374.79
2019-04-10T09:17:22.871Z,98374.75
2019-04-10T09:20:36.483Z,98376.67
2019-04-10T09:23:52.895Z,98378.16
2019-04-10T09:27:05.670Z,98373.39
2019-04-10T09:30:20.293Z,98379.11
2019-04-10T09:33:34.890Z,98378.55
2019-04-10T09:36:49.215Z,98376.55
2019-04-10T09:40:04.105Z,98381.59
2019-04-10T09:43:17.813Z,98383.28
2019-04-10T09:46:31.256Z,98389.83
2019-04-10T09:49:47.047Z,98387.54
2019-04-10T09:53:00.673Z,98382.41
2019-04-10T09:56:14.243Z,98381.39
2019-04-10T09:59:35.515Z,98385.84
2019-04-10T10:02:43.797Z,98383.01
2019-04-10T10:05:57.269Z,98388.38
2019-04-10T10:09:10.755Z,98382.56
2019-04-10T10:12:24.207Z,98384.41
2019-04-10T10:15:37.733Z,98383.65
2019-04-10T10:18:51.975Z,98376.73
2019-04-10T10:22:06.105Z,98378.45
2019-04-10T10:25:21.559Z,98377.39
2019-04-10T10:28:35.394Z,98383.13
2019-04-10T10:31:51.223Z,98383.45
2019-04-10T10:35:05.395Z,98386.06
2019-04-10T10:38:19.245Z,98375.13
2019-04-10T10:41:32.736Z,98378.58
2019-04-10T10:44:46.575Z,98388.84
2019-04-10T10:48:01.230Z,98388.67
2019-04-10T10:51:14.933Z,98385.91
2019-04-10T10:54:29.356Z,98387.81
2019-04-10T10:57:43.662Z,98390.79
2019-04-10T11:00:57.745Z,98394.34
2019-04-10T11:04:11.403Z,98395.40
2019-04-10T11:07:25.143Z,98393.00
2019-04-10T11:10:39.021Z,98393.77
2019-04-10T11:13:52.807Z,98397.23
2019-04-10T11:17:06.911Z,98391.89
2019-04-10T11:20:20.590Z,98394.06
2019-04-10T11:23:34.343Z,98393.52
2019-04-10T11:26:50.227Z,98395.23
2019-04-10T11:30:05.337Z,98396.12
2019-04-10T11:33:19.089Z,98391.02
2019-04-10T11:36:34.347Z,98391.91
2019-04-10T11:39:50.113Z,98387.94
2019-04-10T11:43:05.335Z,98392.27
2019-04-10T11:46:20.098Z,98391.20
2019-04-10T11:49:36.262Z,98391.38
2019-04-10T11:52:53.128Z,98396.64
2019-04-10T11:56:05.654Z,98396.34
2019-04-10T11:59:22.054Z,98391.28
2019-04-10T12:02:36.953Z,98386.06
2019-04-10T12:05:51.940Z,98383.38
2019-04-10T12:09:45.229Z,98391.95
2019-04-10T12:12:24.526Z,98394.71
2019-04-10T12:15:38.651Z,98394.80
2019-04-10T12:18:53.035Z,98399.08
2019-04-10T12:22:07.511Z,98397.55
2019-04-10T12:25:21.234Z,98399.63
2019-04-10T12:28:36.101Z,98403.81
2019-04-10T12:31:50.300Z,98399.64
2019-04-10T12:35:04.755Z,98409.69
2019-04-10T12:38:19.328Z,98399.53
2019-04-10T12:41:33.236Z,98398.97
2019-04-10T12:44:47.200Z,98397.44
2019-04-10T12:48:02.011Z,98401.27
2019-04-10T12:51:17.307Z,98402.38
2019-04-10T12:54:31.196Z,98398.71
2019-04-10T12:57:45.412Z,98400.52
2019-04-10T13:01:00.374Z,98403.28
2019-04-10T13:04:14.076Z,98402.41
2019-04-10T13:07:28.141Z,98402.83
2019-04-10T13:10:43.402Z,98404.30
2019-04-10T13:13:58.054Z,98400.07
2019-04-10T13:17:12.333Z,98406.87
2019-04-10T13:20:26.134Z,98407.37
2019-04-10T13:23:40.052Z,98402.38
2019-04-10T13:26:55.164Z,98402.84
2019-04-10T13:30:13.042Z,98402.73
2019-04-10T13:33:26.785Z,98398.95
2019-04-10T13:36:41.844Z,98403.08
2019-04-10T13:39:55.421Z,98404.80
2019-04-10T13:43:09.554Z,98405.48
2019-04-10T13:46:23.350Z,98400.94
2019-04-10T13:49:37.820Z,98395.41
2019-04-10T13:52:52.635Z,98393.37
2019-04-10T13:56:08.664Z,98396.20
2019-04-10T13:59:22.714Z,98390.02
2019-04-10T14:02:37.531Z,98386.83
2019-04-10T14:05:52.773Z,98382.65
2019-04-10T14:09:28.872Z,98386.17
2019-04-10T14:12:31.191Z,98386.47
2019-04-10T14:15:45.035Z,98388.60
2019-04-10T14:18:59.214Z,98386.65
2019-04-10T14:22:13.560Z,98388.67
2019-04-10T14:25:35.863Z,98394.96
2019-04-10T14:28:51.298Z,98399.08
2019-04-10T14:32:09.154Z,98402.81
2019-04-10T14:35:23.114Z,98407.02
2019-04-10T14:38:39.040Z,98402.33
2019-04-10T14:41:53.944Z,98400.53
2019-04-10T14:45:09.013Z,98397.55
2019-04-10T14:48:22.654Z,98397.51
2019-04-10T14:51:36.663Z,98397.51
2019-04-10T14:54:50.367Z,98394.56
2019-04-10T14:58:04.087Z,98390.59
2019-04-10T15:01:17.788Z,98394.46
2019-04-10T15:04:31.401Z,98397.66
2019-04-10T15:07:45.165Z,98393.68
2019-04-10T15:10:58.667Z,98397.66
2019-04-10T15:14:13.171Z,98393.27
2019-04-10T15:17:26.691Z,98390.36
2019-04-10T15:20:40.382Z,98396.91
2019-04-10T15:23:53.878Z,98400.84
2019-04-10T15:27:07.374Z,98406.30
2019-04-10T15:30:22.267Z,98402.88
2019-04-10T15:33:35.885Z,98401.35
2019-04-10T15:36:50.794Z,98395.38
2019-04-10T15:40:18.325Z,98403.02
2019-04-10T15:43:23.577Z,98405.48
2019-04-10T15:46:37.269Z,98412.27
2019-04-10T15:49:51.620Z,98404.57
2019-04-10T15:53:05.723Z,98406.27
2019-04-10T15:56:20.427Z,98403.55
2019-04-10T15:59:34.468Z,98408.33
2019-04-10T16:02:48.910Z,98409.05
2019-04-10T16:06:02.696Z,98415.80
2019-04-10T16:09:16.908Z,98421.94
2019-04-10T16:12:30.880Z,98420.04
2019-04-10T16:15:45.201Z,98419.83
2019-04-10T16:19:08.259Z,98423.25
2019-04-10T16:22:42.594Z,98419.55
2019-04-10T16:25:56.498Z,98425.72
2019-04-10T16:29:10.121Z,98429.55
2019-04-10T16:32:25.220Z,98428.72
2019-04-10T16:35:40.063Z,98430.64
2019-04-10T16:38:53.772Z,98433.33
2019-04-10T16:42:08.579Z,98434.16
2019-04-10T16:45:22.367Z,98438.13
2019-04-10T16:48:36.143Z,98438.07
2019-04-10T16:51:50.396Z,98444.78
2019-04-10T16:55:04.721Z,98441.13
2019-04-10T16:58:18.516Z,98439.75
2019-04-10T17:01:33.012Z,98449.56
2019-04-10T17:04:46.569Z,98436.62
2019-04-10T17:08:01.107Z,98447.06
2019-04-10T17:11:14.711Z,98443.02
2019-04-10T17:14:29.343Z,98448.69
2019-04-10T17:17:44.456Z,98450.62
2019-04-10T17:20:58.533Z,98462.27
2019-04-10T17:24:13.390Z,98460.84
2019-04-10T17:27:27.909Z,98467.03
2019-04-10T17:30:42.284Z,98470.53
2019-04-10T17:33:56.684Z,98475.20
2019-04-10T17:37:11.732Z,98485.73
2019-04-10T17:40:33.814Z,98493.83
2019-04-10T17:43:41.268Z,98495.80
2019-04-10T17:46:55.634Z,98504.00
2019-04-10T17:50:11.931Z,98504.33
2019-04-10T17:53:26.174Z,98510.13
2019-04-10T17:56:40.225Z,98512.70
2019-04-10T17:59:54.435Z,98518.77
2019-04-10T18:03:08.465Z,98524.80
2019-04-10T18:06:23.509Z,98532.13
2019-04-10T18:09:37.220Z,98534.92
2019-04-10T18:12:50.915Z,98547.34
2019-04-10T18:16:04.899Z,98549.98
2019-04-10T18:19:19.099Z,98551.28
2019-04-10T18:22:32.724Z,98555.63
2019-04-10T18:25:46.786Z,98560.48
2019-04-10T18:29:01.046Z,98561.77
2019-04-10T18:32:15.803Z,98568.39
2019-04-10T18:35:29.571Z,98575.91
2019-04-10T18:38:43.855Z,98586.09
2019-04-10T18:41:59.730Z,98599.16
2019-04-10T18:45:13.896Z,98598.61
2019-04-10T18:48:27.487Z,98610.69
2019-04-10T18:51:40.975Z,98617.08
2019-04-10T18:54:54.803Z,98626.06
2019-04-10T18:58:13.666Z,98630.14
2019-04-10T19:01:41.389Z,98639.11
2019-04-10T19:05:01.491Z,98640.83
2019-04-10T19:08:16.347Z,98643.31
2019-04-10T19:11:33.331Z,98641.41
2019-04-10T19:14:46.682Z,98656.57
2019-04-10T19:18:01.446Z,98653.52
2019-04-10T19:21:15.633Z,98660.39
2019-04-10T19:24:30.224Z,98664.17
2019-04-10T19:27:44.513Z,98662.92
2019-04-10T19:31:12.862Z,98670.40
2019-04-10T19:34:17.572Z,98670.44
2019-04-10T19:37:31.070Z,98675.84
2019-04-10T19:40:45.844Z,98681.20
2019-04-10T19:43:59.761Z,98676.25
2019-04-10T19:47:14.496Z,98683.83
2019-04-10T19:50:28.362Z,98689.73
2019-04-10T19:53:43.568Z,98683.70
2019-04-10T19:56:57.230Z,98696.38
2019-04-10T20:00:12.492Z,98687.95
2019-04-10T20:03:26.234Z,98688.70
2019-04-10T20:06:40.597Z,98700.09
2019-04-10T20:09:54.939Z,98703.78
2019-04-10T20:13:08.939Z,98704.07
2019-04-10T20:16:22.780Z,98712.75
2019-04-10T20:19:36.782Z,98704.42
2019-04-10T20:22:50.543Z,98709.14
2019-04-10T20:26:05.189Z,98710.31
2019-04-10T20:29:19.191Z,98712.09
2019-04-10T20:32:34.206Z,98710.06
2019-04-10T20:35:48.818Z,98722.95
2019-04-10T20:39:06.189Z,98725.02
2019-04-10T20:42:20.631Z,98723.69
2019-04-10T20:45:34.334Z,98729.98
2019-04-10T20:48:48.819Z,98733.28
2019-04-10T20:52:02.716Z,98741.97
2019-04-10T20:55:17.409Z,98748.45
2019-04-10T20:58:31.018Z,98757.63
2019-04-10T21:01:45.000Z,98760.28
2019-04-10T21:05:04.505Z,98763.77
2019-04-10T21:08:14.385Z,98760.66
2019-04-10T21:11:29.160Z,98766.62
2019-04-10T21:14:43.901Z,98771.44
2019-04-10T21:17:57.542Z,98765.13
2019-04-10T21:21:12.269Z,98774.13
2019-04-10T21:24:25.840Z,98774.48
2019-04-10T21:27:39.735Z,98781.55
2019-04-10T21:31:11.823Z,98780.36
2019-04-10T21:34:44.819Z,98788.37
2019-04-10T21:37:59.152Z,98790.55
2019-04-10T21:41:14.199Z,98795.96
2019-04-10T21:44:28.944Z,98795.66
2019-04-10T21:47:43.933Z,98801.72
2019-04-10T21:50:58.196Z,98804.84
2019-04-10T21:54:11.942Z,98805.95
2019-04-10T21:57:26.358Z,98805.47
2019-04-10T22:00:59.748Z,98803.27
2019-04-10T22:04:14.706Z,98807.62
2019-04-10T22:07:48.387Z,98809.38
2019-04-10T22:11:01.828Z,98815.54
2019-04-10T22:14:17.042Z,98813.32
2019-04-10T22:17:30.626Z,98820.80
2019-04-10T22:20:44.308Z,98822.90
2019-04-10T22:23:58.823Z,98824.17
2019-04-10T22:27:12.771Z,98837.15
2019-04-10T22:30:27.186Z,98841.79
2019-04-10T22:33:41.122Z,98839.75
2019-04-10T22:36:55.607Z,98841.25
2019-04-10T22:40:10.015Z,98843.11
2019-04-10T22:43:24.461Z,98849.56
2019-04-10T22:46:38.433Z,98849.84
2019-04-10T22:49:52.151Z,98850.81
2019-04-10T22:53:06.879Z,98852.95
2019-04-10T22:56:20.936Z,98846.14
2019-04-10T22:59:34.911Z,98855.86
2019-04-10T23:02:48.601Z,98849.75
2019-04-10T23:06:02.186Z,98859.68
2019-04-10T23:09:15.944Z,98859.14
2019-04-10T23:12:30.017Z,98864.44
2019-04-10T23:15:44.127Z,98853.94
2019-04-10T23:18:58.185Z,98858.73
2019-04-10T23:22:13.342Z,98867.50
2019-04-10T23:25:27.254Z,98861.31
2019-04-10T23:28:41.912Z,98860.17
2019-04-10T23:31:56.201Z,98862.32
2019-04-10T23:35:10.252Z,98864.39
2019-04-10T23:38:24.076Z,98864.98
2019-04-10T23:41:37.919Z,98868.24
2019-04-10T23:44:51.426Z,98874.66
2019-04-10T23:48:06.586Z,98883.28
2019-04-10T23:51:21.141Z,98880.00
2019-04-10T23:54:35.503Z,98878.88
2019-04-10T23:57:49.588Z,98879.87
